createdAt,value
2023-03-06T00:01:55.201Z,2.80
2023-03-06T00:04:22.270Z,2.80
2023-03-06T00:06:50.576Z,2.80
2023-03-06T00:09:47.137Z,2.80
2023-03-06T00:12:14.005Z,2.70
2023-03-06T00:14:40.825Z,2.80
2023-03-06T00:17:07.747Z,2.70
2023-03-06T00:19:34.555Z,2.80
2023-03-06T00:22:03.302Z,2.80
2023-03-06T00:24:30.084Z,2.80
2023-03-06T00:26:56.971Z,2.80
2023-03-06T00:29:23.757Z,2.80
2023-03-06T00:31:50.657Z,2.80
2023-03-06T00:34:17.496Z,2.80
2023-03-06T00:36:44.246Z,2.90
2023-03-06T00:39:11.102Z,2.90
2023-03-06T00:41:37.890Z,2.90
2023-03-06T00:44:05.013Z,2.90
2023-03-06T00:46:31.798Z,2.90
2023-03-06T00:48:58.628Z,2.90
2023-03-06T00:51:25.554Z,2.90
2023-03-06T00:53:52.329Z,2.90
2023-03-06T00:56:20.067Z,3.00
2023-03-06T00:58:46.899Z,2.90
2023-03-06T01:01:13.812Z,2.90
2023-03-06T01:03:40.739Z,3.00
2023-03-06T01:06:07.650Z,3.00
2023-03-06T01:08:34.501Z,3.00
2023-03-06T01:11:01.254Z,3.00
2023-03-06T01:13:28.115Z,3.00
2023-03-06T01:15:54.880Z,3.00
2023-03-06T01:18:21.731Z,3.00
2023-03-06T01:20:48.796Z,3.00
2023-03-06T01:23:15.613Z,3.00
2023-03-06T01:25:44.159Z,3.00
2023-03-06T01:28:11.113Z,3.00
2023-03-06T01:30:53.234Z,3.00
2023-03-06T01:33:20.853Z,3.00
2023-03-06T01:35:47.899Z,3.00
2023-03-06T01:38:14.740Z,2.90
2023-03-06T01:40:41.523Z,2.90
2023-03-06T01:43:29.474Z,3.00
2023-03-06T01:46:15.225Z,3.00
2023-03-06T01:48:42.988Z,3.00
2023-03-06T01:51:10.057Z,3.00
2023-03-06T01:53:38.159Z,3.00
2023-03-06T01:56:05.384Z,3.00
2023-03-06T01:58:32.475Z,3.00
2023-03-06T02:00:59.389Z,3.00
2023-03-06T02:03:27.052Z,3.00
2023-03-06T02:05:54.158Z,3.00
2023-03-06T02:08:21.813Z,3.00
2023-03-06T02:11:07.376Z,3.00
2023-03-06T02:13:34.777Z,3.00
2023-03-06T02:16:01.746Z,3.00
2023-03-06T02:18:29.544Z,3.10
2023-03-06T02:20:57.949Z,3.10
2023-03-06T02:23:27.819Z,3.10
2023-03-06T02:25:54.677Z,3.10
2023-03-06T02:28:22.753Z,3.10
2023-03-06T02:30:50.622Z,3.10
2023-03-06T02:33:18.860Z,3.10
2023-03-06T02:35:53.397Z,3.20
2023-03-06T02:38:22.799Z,3.10
2023-03-06T02:40:50.892Z,3.20
2023-03-06T02:43:20.490Z,3.20
2023-03-06T02:45:48.669Z,3.20
2023-03-06T02:48:16.724Z,3.20
2023-03-06T02:50:44.086Z,3.20
2023-03-06T02:53:11.627Z,3.20
2023-03-06T02:55:38.580Z,3.20
2023-03-06T02:58:05.447Z,3.20
2023-03-06T03:00:32.791Z,3.20
2023-03-06T03:02:59.841Z,3.20
2023-03-06T03:05:26.723Z,3.20
2023-03-06T03:07:53.492Z,3.20
2023-03-06T03:10:20.313Z,3.20
2023-03-06T03:12:47.102Z,3.20
2023-03-06T03:15:13.912Z,3.20
2023-03-06T03:17:41.100Z,3.20
2023-03-06T03:20:09.413Z,3.20
2023-03-06T03:22:36.210Z,3.20
2023-03-06T03:25:04.218Z,3.20
2023-03-06T03:27:31.089Z,3.20
2023-03-06T03:29:58.590Z,3.30
2023-03-06T03:32:25.509Z,3.30
2023-03-06T03:34:52.329Z,3.30
2023-03-06T03:37:19.111Z,3.20
2023-03-06T03:39:45.934Z,3.20
2023-03-06T03:42:12.711Z,3.20
2023-03-06T03:44:39.527Z,3.20
2023-03-06T03:47:06.466Z,3.20
2023-03-06T03:49:33.304Z,3.10
2023-03-06T03:52:00.116Z,3.10
2023-03-06T03:54:26.933Z,3.10
2023-03-06T03:56:53.748Z,3.10
2023-03-06T03:59:21.074Z,3.20
2023-03-06T04:01:48.354Z,3.20
2023-03-06T04:04:15.306Z,3.30
2023-03-06T04:06:42.078Z,3.30
2023-03-06T04:09:08.888Z,3.30
2023-03-06T04:11:35.637Z,3.30
2023-03-06T04:14:03.415Z,3.30
2023-03-06T04:16:30.290Z,3.30
2023-03-06T04:18:57.194Z,3.30
2023-03-06T04:21:23.979Z,3.30
2023-03-06T04:23:50.800Z,3.30
2023-03-06T04:26:17.796Z,3.30
2023-03-06T04:28:44.602Z,3.30
2023-03-06T04:31:14.384Z,3.40
2023-03-06T04:33:41.202Z,3.40
2023-03-06T04:36:08.174Z,3.40
2023-03-06T04:38:35.037Z,3.40
2023-03-06T04:41:01.875Z,3.50
2023-03-06T04:43:28.732Z,3.50
2023-03-06T04:45:55.612Z,3.50
2023-03-06T04:48:22.434Z,3.50
2023-03-06T04:50:49.216Z,3.60
2023-03-06T04:53:16.995Z,3.60
2023-03-06T04:55:43.845Z,3.60
2023-03-06T04:58:12.181Z,3.60
2023-03-06T05:00:39.027Z,3.60
2023-03-06T05:03:05.822Z,3.60
2023-03-06T05:05:32.591Z,3.60
2023-03-06T05:07:59.388Z,3.60
2023-03-06T05:10:26.265Z,3.60
2023-03-06T05:12:53.089Z,3.60
2023-03-06T05:15:19.979Z,3.60
2023-03-06T05:17:49.805Z,3.60
2023-03-06T05:20:17.082Z,3.60
2023-03-06T05:22:43.918Z,3.60
2023-03-06T05:25:11.177Z,3.60
2023-03-06T05:27:38.051Z,3.60
2023-03-06T05:30:05.106Z,3.60
2023-03-06T05:32:34.410Z,3.60
2023-03-06T05:35:02.326Z,3.60
2023-03-06T05:37:29.133Z,3.60
2023-03-06T05:39:56.091Z,3.60
2023-03-06T05:42:22.925Z,3.50
2023-03-06T05:44:49.974Z,3.50
2023-03-06T05:47:16.868Z,3.50
2023-03-06T05:49:43.646Z,3.50
2023-03-06T05:52:11.970Z,3.50
2023-03-06T05:54:38.753Z,3.50
2023-03-06T05:57:05.743Z,3.50
2023-03-06T05:59:33.259Z,3.50
2023-03-06T06:02:00.660Z,3.50
2023-03-06T06:04:27.885Z,3.50
2023-03-06T06:06:55.644Z,3.40
2023-03-06T06:09:22.790Z,3.40
2023-03-06T06:11:53.702Z,3.40
2023-03-06T06:14:20.513Z,3.40
2023-03-06T06:16:47.509Z,3.40
2023-03-06T06:19:18.699Z,3.40
2023-03-06T06:21:47.086Z,3.40
2023-03-06T06:24:14.542Z,3.40
2023-03-06T06:26:41.421Z,3.40
2023-03-06T06:29:08.246Z,3.40
2023-03-06T06:31:36.864Z,3.50
2023-03-06T06:34:04.644Z,3.50
2023-03-06T06:36:31.511Z,3.50
2023-03-06T06:38:58.733Z,3.50
2023-03-06T06:41:46.175Z,3.40
2023-03-06T06:44:15.648Z,3.50
2023-03-06T06:49:32.575Z,3.50
2023-03-06T06:51:59.453Z,3.50
2023-03-06T06:54:26.518Z,3.60
2023-03-06T06:56:53.543Z,3.60
2023-03-06T06:59:20.883Z,3.60
2023-03-06T07:01:47.858Z,3.60
2023-03-06T07:04:15.233Z,3.60
2023-03-06T07:06:42.630Z,3.50
2023-03-06T07:09:09.420Z,3.50
2023-03-06T07:11:37.250Z,3.50
2023-03-06T07:14:04.042Z,3.50
2023-03-06T07:16:30.846Z,3.50
2023-03-06T07:18:57.794Z,3.50
2023-03-06T07:21:24.552Z,3.50
2023-03-06T07:23:51.349Z,3.40
2023-03-06T07:26:18.133Z,3.40
2023-03-06T07:28:52.404Z,3.40
2023-03-06T07:31:22.199Z,3.40
2023-03-06T07:33:49.632Z,3.40
2023-03-06T07:36:16.785Z,3.40
2023-03-06T07:38:43.682Z,3.40
2023-03-06T07:41:13.626Z,3.50
2023-03-06T07:43:41.253Z,3.50
2023-03-06T07:46:08.302Z,3.40
2023-03-06T07:48:35.654Z,3.40
2023-03-06T07:51:04.698Z,3.40
2023-03-06T07:53:32.353Z,3.40
2023-03-06T07:55:59.222Z,3.50
2023-03-06T07:58:26.168Z,3.50
2023-03-06T08:00:52.951Z,3.50
2023-03-06T08:03:19.801Z,3.60
2023-03-06T08:05:46.630Z,3.70
2023-03-06T08:08:13.410Z,3.80
2023-03-06T08:16:57.931Z,3.80
2023-03-06T08:19:50.609Z,3.80
2023-03-06T08:22:18.163Z,3.80
2023-03-06T08:24:46.064Z,3.70
2023-03-06T08:41:36.510Z,3.90
2023-03-06T08:44:03.691Z,4.10
2023-03-06T08:46:30.642Z,4.10
2023-03-06T15:20:48.234Z,3.30
2023-03-06T15:23:20.233Z,3.30
2023-03-06T15:26:00.198Z,3.40
2023-03-06T15:28:38.601Z,3.50
2023-03-06T15:31:05.393Z,3.70
2023-03-06T15:33:32.260Z,3.80
2023-03-06T15:36:02.124Z,4.00
2023-03-06T15:38:42.824Z,4.10
2023-03-06T15:41:28.265Z,4.30
2023-03-06T15:43:55.087Z,4.10
2023-03-06T15:46:21.838Z,3.80
2023-03-06T15:49:11.646Z,3.60
2023-03-06T15:51:38.401Z,3.50
2023-03-06T15:54:12.184Z,3.30
2023-03-06T15:56:41.930Z,3.30
2023-03-06T15:59:11.621Z,3.30
2023-03-06T16:01:38.987Z,3.30
2023-03-06T16:04:05.759Z,3.20
2023-03-06T16:06:32.543Z,3.20
2023-03-06T16:08:59.357Z,3.30
2023-03-06T16:11:41.836Z,3.20
2023-03-06T16:14:15.698Z,3.10
2023-03-06T16:16:42.553Z,3.10
2023-03-06T16:19:23.866Z,3.10
2023-03-06T16:21:52.385Z,3.20
2023-03-06T16:24:19.212Z,3.20
2023-03-06T16:26:47.691Z,3.30
2023-03-06T16:29:18.792Z,3.30
2023-03-06T16:31:45.873Z,3.40
2023-03-06T16:34:12.682Z,3.30
2023-03-06T16:36:39.857Z,3.30
2023-03-06T16:39:07.110Z,3.30
2023-03-06T16:41:33.881Z,3.30
2023-03-06T16:44:00.747Z,3.30
2023-03-06T16:46:27.661Z,3.20
2023-03-06T16:48:54.554Z,3.20
2023-03-06T16:51:22.162Z,3.20
2023-03-06T16:53:50.902Z,3.10
2023-03-06T16:56:18.841Z,3.10
2023-03-06T16:58:45.726Z,3.10
2023-03-06T17:01:16.736Z,3.00
2023-03-06T17:14:25.014Z,2.80
2023-03-06T17:16:53.521Z,2.80
2023-03-06T17:27:25.960Z,2.70
2023-03-06T17:29:52.791Z,2.70
2023-03-06T17:32:19.865Z,2.70
2023-03-06T17:34:46.653Z,2.60
2023-03-06T17:39:40.706Z,2.60
2023-03-06T17:42:10.881Z,2.60
2023-03-06T17:44:37.836Z,2.50
2023-03-06T17:47:05.270Z,2.40
2023-03-06T17:49:32.525Z,2.40
2023-03-06T17:52:04.500Z,2.30
2023-03-06T17:54:33.234Z,2.40
2023-03-06T17:59:50.258Z,2.30
2023-03-06T18:02:17.783Z,2.30
2023-03-06T18:04:44.646Z,2.20
2023-03-06T18:07:16.132Z,2.10
2023-03-06T18:09:43.355Z,2.20
2023-03-06T18:12:13.335Z,2.20
2023-03-06T18:14:40.352Z,2.00
2023-03-06T18:17:10.154Z,2.10
2023-03-06T18:25:00.000Z,2.00
2023-03-06T18:40:50.233Z,2.10
2023-03-06T18:43:17.612Z,2.10
2023-03-06T18:46:00.942Z,2.10
2023-03-06T18:48:28.254Z,2.10
2023-03-06T18:50:56.347Z,2.00
2023-03-06T18:53:26.633Z,2.00
2023-03-06T19:03:17.902Z,1.80
2023-03-06T19:05:45.774Z,1.90
2023-03-06T19:08:13.558Z,1.80
2023-03-06T19:10:41.452Z,1.80
2023-03-06T19:13:08.892Z,1.80
2023-03-06T19:18:03.126Z,1.70
2023-03-06T19:42:35.911Z,1.70
2023-03-06T19:45:02.717Z,1.70
2023-03-06T19:47:29.534Z,1.70
2023-03-06T19:49:56.302Z,1.70
2023-03-06T19:52:24.776Z,1.80
2023-03-06T19:54:52.079Z,1.70
2023-03-06T19:57:19.402Z,1.80
2023-03-06T19:59:50.370Z,1.80
2023-03-06T20:02:19.586Z,1.80
2023-03-06T20:04:46.936Z,1.80
2023-03-06T20:07:13.920Z,1.80
2023-03-06T20:09:40.809Z,1.80
2023-03-06T20:12:08.340Z,1.80
2023-03-06T20:14:35.303Z,1.80
2023-03-06T20:17:02.238Z,1.70
2023-03-06T20:19:30.523Z,1.70
2023-03-06T20:21:57.429Z,1.70
2023-03-06T20:24:26.023Z,1.60
2023-03-06T20:26:57.525Z,1.50
2023-03-06T20:29:26.120Z,1.50
2023-03-06T20:31:54.942Z,1.50
2023-03-06T20:34:21.793Z,1.40
2023-03-06T20:36:48.574Z,1.40
2023-03-06T20:39:16.892Z,1.30
2023-03-06T20:41:43.986Z,1.30
2023-03-06T20:44:13.594Z,1.20
2023-03-06T20:46:40.443Z,1.20
2023-03-06T20:49:07.758Z,1.10
2023-03-06T20:51:37.581Z,1.10
2023-03-06T20:54:04.834Z,1.10
2023-03-06T20:56:33.166Z,1.10
2023-03-06T20:58:59.964Z,1.20
2023-03-06T21:01:30.758Z,1.30
2023-03-06T21:03:58.176Z,1.30
2023-03-06T21:06:25.309Z,1.40
2023-03-06T21:08:52.169Z,1.30
2023-03-06T21:11:18.953Z,1.30
2023-03-06T21:13:46.029Z,1.30
2023-03-06T21:16:14.256Z,1.30
